Latest Weather Observations for Moranbah Airport

IDQ60801

Issued at 10:13 am EST Tuesday 7 December 2021 (issued every 10 minutes, with the page automatically refreshed every 10 minutes)

About weather observations | Map of weather stations | Latest weather observations for QLD | Other Formats
Station Details ID: 034035 Name: MORANBAH AIRPORT Lat: -22.06 Lon: 148.08 Height: 232.2 m
Data from the previous 72 hours. | See also: Recent months at Moranbah Airport
Date/Time
EST
Temp
°C
App
Temp
°C
Dew
Point
°C
Rel
Hum
%
Delta-T
°C
Wind Press
QNH
hPa
Press
MSL
hPa
Rain since
9am
mm
Dir  Spd
km/h
Gust
km/h
Spd
kts
Gust
kts
07/10:00am 28.6 28.6 19.8 59 5.8 ENE 19 24 10 13 1013.3 1011.7 0.0
07/09:30am 27.8 28.0 20.1 63 5.1 E 19 24 10 13 1013.7 1012.1 0.0
07/09:00am 27.4 27.3 20.0 64 4.9 E 20 24 11 13 1013.8 1012.2 0.0
07/08:30am 26.6 26.5 20.0 67 4.3 ENE 20 28 11 15 1013.9 1012.3 0.0
07/08:00am 25.4 25.2 19.8 71 3.7 E 20 28 11 15 1014.0 1012.4 0.0
07/07:30am 25.0 25.1 20.3 75 3.1 E 20 26 11 14 1014.2 1012.6 0.0
07/07:00am 24.4 25.0 20.3 78 2.7 SE 17 24 9 13 1014.4 1012.8 0.0
07/06:30am 23.1 23.6 20.1 83 2.0 SE 17 20 9 11 1014.3 1012.7 0.0
07/06:00am 22.0 23.4 20.3 90 1.1 SE 13 17 7 9 1014.2 1012.6 0.0
07/05:30am 21.4 22.7 20.2 93 0.8 SSE 13 15 7 8 1013.9 1012.3 0.0
07/05:00am 21.2 22.9 20.2 94 0.6 SSE 11 13 6 7 1013.5 1011.9 0.0
07/04:30am 21.2 23.0 20.4 95 0.5 SE 11 13 6 7 1012.9 1011.3 0.0
07/04:00am 21.3 22.5 19.9 92 0.9 ESE 13 15 7 8 1012.3 1010.7 0.0
07/03:30am 21.4 22.5 19.7 90 1.1 ESE 13 15 7 8 1012.3 1010.7 0.0
07/03:00am 21.0 22.8 19.5 91 1.0 SE 9 13 5 7 1012.4 1010.8 0.0
07/02:30am 21.1 22.8 19.4 90 1.1 SE 9 11 5 6 1012.4 1010.8 0.0
07/02:00am 21.5 22.8 19.4 88 1.3 SE 11 15 6 8 1012.3 1010.7 0.0
07/01:30am 21.6 22.9 19.3 87 1.5 SE 11 11 6 6 1012.3 1010.7 0.0
07/01:00am 22.1 23.2 18.9 82 2.0 SSE 11 13 6 7 1012.7 1011.1 0.0
07/12:30am 22.5 23.9 18.7 79 2.4 ESE 9 11 5 6 1012.6 1011.0 0.0
07/12:00am 23.3 24.3 18.6 75 3.0 E 11 15 6 8 1012.5 1010.9 0.0
 
Date/Time
EST
Temp
°C
App
Temp
°C
Dew
Point
°C
Rel
Hum
%
Delta-T
°C
Wind Press
QNH
hPa
Press
MSL
hPa
Rain since
9am
mm
Dir  Spd
km/h
Gust
km/h
Spd
kts
Gust
kts
06/11:30pm 23.9 24.5 18.5 72 3.4 E 13 17 7 9 1012.6 1011.0 0.0
06/11:00pm 24.5 24.5 18.2 68 4.0 E 15 24 8 13 1012.8 1011.2 0.0
06/10:30pm 24.6 25.0 18.1 67 4.1 ENE 13 17 7 9 1013.0 1011.4 0.0
06/10:00pm 25.3 25.5 18.5 66 4.4 ENE 15 20 8 11 1012.8 1011.2 0.0
06/09:30pm 25.3 26.1 19.0 68 4.1 E 13 19 7 10 1012.6 1011.0 0.0
06/09:00pm 24.8 25.8 19.4 72 3.5 ESE 13 17 7 9 1012.4 1010.8 0.0
06/08:30pm 25.2 25.2 19.8 72 3.5 ESE 19 24 10 13 1011.9 1010.4 0.0
06/08:00pm 25.9 24.2 19.8 69 4.0 ESE 28 39 15 21 1011.6 1010.1 0.0
06/07:30pm 27.4 26.8 18.9 59 5.5 SE 20 30 11 16 1011.3 1009.8 0.0
06/07:00pm 28.1 26.6 17.6 53 6.7 ESE 22 30 12 16 1010.7 1009.2 0.0
06/06:30pm 28.5 28.7 17.7 52 6.9 ESE 13 17 7 9 1010.1 1008.5 0.0
06/06:00pm 29.2 30.4 18.3 51 7.1 ESE 9 9 5 5 1009.7 1008.1 0.0
06/05:30pm 30.5 30.4 16.9 44 8.6 ESE 13 17 7 9 1009.6 1008.0 0.0
06/05:00pm 30.6 30.2 16.2 41 9.1 E 13 15 7 8 1009.5 1007.9 0.0
06/04:30pm 31.3 30.9 16.1 40 9.6 E 13 19 7 10 1009.2 1007.6 0.0
06/04:00pm 31.6 30.4 16.0 39 9.8 E 17 24 9 13 1009.2 1007.6 0.0
06/03:30pm 32.0 32.7 17.1 41 9.5 ESE 9 19 5 10 1009.4 1007.8 0.0
06/03:00pm 31.8 31.0 16.1 38 9.9 SSE 15 20 8 11 1009.8 1008.2 0.0
06/02:30pm 31.5 31.0 17.8 44 8.9 ESE 17 24 9 13 1010.0 1008.4 0.0
06/02:00pm 31.2 30.5 18.2 46 8.4 E 19 28 10 15 1010.5 1008.9 0.0
06/01:30pm 30.3 30.1 17.7 46 8.1 ESE 15 24 8 13 1010.8 1009.3 0.0
06/01:00pm 29.7 30.0 17.8 48 7.7 SE 13 24 7 13 1011.2 1009.7 0.0
06/12:30pm 30.3 30.4 18.4 49 7.7 E 15 28 8 15 1011.4 1009.9 0.0
06/12:00pm 30.0 29.9 18.8 51 7.3 E 17 26 9 14 1011.8 1010.3 0.0
06/11:30am 28.9 29.0 19.2 55 6.3 E 17 24 9 13 1012.4 1010.8 0.0
06/11:00am 28.7 28.1 18.8 55 6.4 E 20 30 11 16 1012.6 1011.0 0.0
06/10:30am 28.0 28.8 19.8 61 5.4 E 15 24 8 13 1012.9 1011.3 0.0
06/10:00am 28.2 27.0 18.3 55 6.4 ENE 22 33 12 18 1013.0 1011.4 0.0
06/09:30am 27.5 26.0 18.5 58 5.8 E 24 32 13 17 1013.0 1011.4 0.0
06/09:00am 27.0 25.7 19.1 62 5.1 E 24 30 13 16 1013.3 1011.7 0.0
06/08:30am 26.4 26.4 19.8 67 4.3 E 19 26 10 14 1013.2 1011.6 0.0
06/08:00am 25.6 25.2 19.3 68 4.1 ESE 20 32 11 17 1013.1 1011.5 0.0
06/07:30am 25.0 24.4 19.8 73 3.4 ESE 22 30 12 16 1012.9 1011.3 0.0
06/07:00am 23.9 23.9 19.8 78 2.7 SE 19 24 10 13 1012.9 1011.3 0.0
06/06:30am 22.6 24.3 20.1 86 1.6 SE 11 15 6 8 1012.6 1011.0 0.0
06/06:00am 21.6 24.3 19.5 88 1.3 SE 4 9 2 5 1012.4 1010.8 0.0
06/05:30am 20.1 21.7 19.1 94 0.6 SE 9 11 5 6 1011.8 1010.3 0.0
06/05:00am 20.1 21.2 18.9 93 0.8 SE 11 13 6 7 1011.4 1009.9 0.0
06/04:30am 20.4 21.5 18.9 91 1.0 SE 11 11 6 6 1011.2 1009.7 0.0
06/04:00am 20.7 22.2 18.8 89 1.2 SE 9 11 5 6 1011.1 1009.6 0.0
06/03:30am 20.8 21.5 18.9 89 1.2 SE 13 13 7 7 1010.7 1009.2 0.0
06/03:00am 21.1 22.2 18.9 87 1.4 SE 11 13 6 7 1010.8 1009.3 0.0
06/02:30am 21.5 22.6 18.9 85 1.7 ESE 11 15 6 8 1011.0 1009.5 0.0
06/02:00am 21.7 22.4 18.9 84 1.8 ESE 13 17 7 9 1011.0 1009.5 0.0
06/01:30am 21.2 22.3 18.8 86 1.5 ESE 11 13 6 7 1011.2 1009.7 0.0
06/01:00am 21.3 22.7 18.7 85 1.6 SE 9 11 5 6 1011.4 1009.9 0.0
06/12:30am 21.4 22.7 18.4 83 1.9 ESE 9 11 5 6 1011.3 1009.8 0.0
06/12:00am 22.4 22.9 18.4 78 2.5 ESE 13 15 7 8 1011.6 1010.1 0.0
 
Date/Time
EST
Temp
°C
App
Temp
°C
Dew
Point
°C
Rel
Hum
%
Delta-T
°C
Wind Press
QNH
hPa
Press
MSL
hPa
Rain since
9am
mm
Dir  Spd
km/h
Gust
km/h
Spd
kts
Gust
kts
05/11:30pm 23.5 24.1 18.6 74 3.1 E 13 17 7 9 1012.0 1010.5 0.0
05/11:00pm 24.1 23.5 18.5 71 3.6 E 19 26 10 14 1012.5 1010.9 0.0
05/10:30pm 24.4 22.4 18.3 69 3.9 E 26 39 14 21 1012.1 1010.6 0.0
05/10:00pm 24.6 23.4 17.6 65 4.4 E 20 28 11 15 1011.8 1010.3 0.0
05/09:30pm 25.3 23.0 14.7 51 6.4 E 20 26 11 14 1011.3 1009.8 0.0
05/09:00pm 25.9 24.8 13.1 45 7.6 ESE 11 20 6 11 1011.0 1009.5 0.0
05/08:30pm 26.9 23.5 11.4 38 8.9 ENE 20 26 11 14 1010.5 1008.9 0.0
05/08:00pm 27.6 23.6 10.3 34 9.8 ENE 22 30 12 16 1010.2 1008.6 0.0
05/07:30pm 28.9 23.8 10.6 32 10.5 ENE 28 41 15 22 1009.5 1007.9 0.0
05/07:00pm 29.6 27.2 15.3 41 8.9 ENE 22 32 12 17 1009.4 1007.8 0.0
05/06:40pm 30.3 30.1 17.7 46 8.1 E 15 39 8 21 1008.9 1007.3 0.0
05/06:30pm 30.0 31.5 18.8 51 7.3 E 9 13 5 7 1008.5 1006.9 0.0
05/06:00pm 31.5 32.2 18.8 46 8.3 ENE 13 17 7 9 1008.1 1006.5 0.0
05/05:30pm 32.2 31.7 16.9 40 9.8 ESE 15 20 8 11 1007.8 1006.2 0.0
05/05:00pm 33.0 31.9 16.4 37 10.6 ESE 17 22 9 12 1007.9 1006.3 0.0
05/04:30pm 33.2 32.0 17.0 38 10.4 SE 19 26 10 14 1007.9 1006.3 0.0
05/04:00pm 33.3 32.7 16.6 36 10.7 ESE 15 24 8 13 1008.0 1006.4 0.0
05/03:30pm 32.6 33.0 19.1 44 8.9 ESE 15 20 8 11 1008.1 1006.5 0.0
05/03:00pm 32.4 33.3 20.0 48 8.3 ESE 15 20 8 11 1008.5 1006.9 0.0
05/02:30pm 32.1 33.3 20.0 48 8.1 ENE 13 20 7 11 1008.8 1007.2 0.0
05/02:00pm 31.4 33.1 21.0 54 7.0 ESE 13 20 7 11 1009.2 1007.6 0.0
05/01:30pm 30.9 32.6 20.2 53 7.1 ESE 11 19 6 10 1009.6 1008.0 0.0
05/01:00pm 31.2 33.9 22.8 61 5.8 E 13 24 7 13 1010.2 1008.6 0.0
05/12:30pm 30.3 30.9 20.2 54 6.7 ESE 17 22 9 12 1010.7 1009.2 0.0
05/12:00pm 29.9 31.7 21.8 62 5.5 E 15 24 8 13 1011.2 1009.7 0.0
05/11:30am 29.5 30.5 21.7 63 5.3 ESE 19 28 10 15 1011.7 1010.2 0.0
05/11:00am 29.8 31.0 22.5 65 5.0 ESE 20 28 11 15 1012.3 1010.7 0.0
05/10:30am 29.0 30.0 21.7 64 4.9 ESE 19 28 10 15 1012.4 1010.8 0.0
05/10:00am 28.4 28.1 20.4 62 5.3 E 22 28 12 15 1012.8 1011.2 0.0
05/09:30am 29.1 29.4 20.8 61 5.6 E 20 28 11 15 1013.0 1011.4 0.0
05/09:00am 27.9 30.0 21.7 69 4.2 ESE 13 20 7 11 1013.0 1011.4 0.0
05/08:30am 27.4 30.0 21.2 69 4.2 E 9 15 5 8 1012.5 1010.9 0.0
05/08:00am 26.8 29.8 21.3 72 3.7 E 7 13 4 7 1012.4 1010.8 0.0
05/07:30am 26.1 28.9 21.5 76 3.1 ESE 9 11 5 6 1012.0 1010.5 0.0
05/07:00am 24.9 27.5 21.2 80 2.5 ESE 9 13 5 7 1011.8 1010.3 0.0
05/06:30am 23.6 26.3 21.3 87 1.5 SSE 9 13 5 7 1011.3 1009.8 0.0
05/06:00am 22.6 25.3 21.4 93 0.8 SSE 9 11 5 6 1011.1 1009.6 0.0
05/05:30am 21.5 23.6 21.0 97 0.3 SE 11 11 6 6 1011.0 1009.5 0.0
05/05:00am 21.4 23.5 20.9 97 0.3 ESE 11 11 6 6 1010.7 1009.2 0.0
05/04:30am 21.4 24.3 20.6 95 0.5 SE 6 7 3 4 1010.3 1008.7 0.0
05/04:00am 21.7 24.7 20.9 95 0.5 SE 6 9 3 5 1010.1 1008.5 0.0
05/03:30am 22.0 24.6 21.2 95 0.5 SE 9 13 5 7 1009.6 1008.0 0.0
05/03:00am 22.2 25.1 21.0 93 0.8 SSW 7 9 4 5 1009.7 1008.1 0.0
05/02:30am 22.4 25.2 20.9 91 1.0 SSE 7 9 4 5 1009.7 1008.1 0.0
05/02:00am 22.4 24.5 21.0 92 0.9 SE 11 11 6 6 1009.6 1008.0 0.0
05/01:30am 22.7 24.8 21.0 90 1.1 SE 11 13 6 7 1009.9 1008.3 0.0
05/01:00am 23.0 25.1 20.9 88 1.4 SE 11 11 6 6 1010.2 1008.6 0.0
05/12:30am 23.9 26.3 20.8 83 2.0 S 9 11 5 6 1010.5 1008.9 0.0
05/12:00am 23.9 26.1 20.4 81 2.3 S 9 13 5 7 1010.8 1009.3 0.0
 
Date/Time
EST
Temp
°C
App
Temp
°C
Dew
Point
°C
Rel
Hum
%
Delta-T
°C
Wind Press
QNH
hPa
Press
MSL
hPa
Rain since
9am
mm
Dir  Spd
km/h
Gust
km/h
Spd
kts
Gust
kts
04/11:30pm 24.0 26.7 20.3 80 2.4 ESE 6 9 3 5 1010.6 1009.0 0.0
04/11:00pm 24.5 26.9 20.0 76 2.9 E 7 9 4 5 1010.8 1009.3 0.0
04/10:30pm 24.5 26.2 19.3 73 3.4 ESE 9 9 5 5 1011.0 1009.5 0.0
04/10:00pm 24.9 26.6 18.6 68 4.0 E 7 11 4 6 1011.2 1009.7 0.0
04/09:30pm 25.1 26.2 18.1 65 4.5 ESE 9 11 5 6 1010.8 1009.3 0.0
04/09:00pm 25.2 25.6 18.2 65 4.5 SE 13 13 7 7 1010.4 1008.8 0.0
04/08:30pm 25.3 25.5 17.7 62 4.8 SE 13 13 7 7 1010.3 1008.7 0.0
04/08:00pm 25.8 25.9 17.4 59 5.3 SE 13 15 7 8 1010.1 1008.5 0.0
04/07:30pm 26.2 25.9 17.3 58 5.6 SE 15 15 8 8 1010.0 1008.4 0.0
04/07:00pm 26.9 26.4 16.8 54 6.3 SE 15 17 8 9 1009.7 1008.1 0.0
04/06:30pm 28.6 28.4 16.8 48 7.4 SE 13 17 7 9 1009.3 1007.7 0.0
04/06:00pm 30.9 30.1 16.1 41 9.3 SE 15 20 8 11 1009.0 1007.4 0.0
04/05:30pm 32.1 30.5 15.1 35 10.6 SE 17 20 9 11 1008.8 1007.2 0.0
04/05:00pm 32.8 30.4 14.4 33 11.4 SE 20 28 11 15 1008.8 1007.2 0.0
04/04:30pm 33.0 31.9 17.2 39 10.2 ESE 19 28 10 15 1008.8 1007.2 0.0
04/04:00pm 33.0 32.1 16.8 38 10.4 ESE 17 22 9 12 1008.9 1007.3 0.0
04/03:30pm 32.9 32.5 17.1 38 10.2 SE 15 22 8 12 1009.1 1007.5 0.0
04/03:00pm 32.5 32.1 17.2 40 9.8 SE 15 24 8 13 1009.6 1008.0 0.0
04/02:30pm 32.5 32.8 18.7 44 9.1 SE 15 24 8 13 1010.1 1008.5 0.0
04/02:00pm 32.3 33.9 19.9 48 8.3 ESE 11 19 6 10 1010.6 1009.0 0.0
04/01:30pm 32.2 34.1 20.5 50 7.9 SSE 11 19 6 10 1011.0 1009.5 0.0
04/01:00pm 31.3 32.8 20.6 53 7.2 SE 13 26 7 14 1011.4 1009.9 0.0
04/12:30pm 31.2 32.2 21.1 55 6.8 ESE 17 24 9 13 1011.9 1010.4 0.0
04/12:00pm 31.1 33.4 22.1 58 6.2 SE 13 24 7 13 1012.1 1010.6 0.0
04/11:30am 29.9 31.1 20.7 57 6.2 E 15 20 8 11 1012.6 1011.0 0.0
04/11:00am 29.6 31.3 21.0 60 5.8 SSE 13 19 7 10 1013.1 1011.5 0.0
04/10:30am 29.1 30.8 21.6 64 5.1 SE 15 30 8 16 1013.7 1012.1 0.0

Other formats

Comma delimited format used in spreadsheet applications
http://www.bom.gov.au/fwo/IDQ60801/IDQ60801.94397.axf

JavaScript Object Notation format (JSON) in row-major order
http://www.bom.gov.au/fwo/IDQ60801/IDQ60801.94397.json

Data quality

Most of these data are generated automatically and are frequently updated. Quality checks on data are not normally performed. It is possible for incorrect values to appear. Refer to information at About Latest Weather Observations and please check the disclaimer before using these data.